createdAt,value
2023-01-22T00:01:24.716Z,11.83
2023-01-22T00:03:53.828Z,9.47
2023-01-22T00:06:23.625Z,12.43
2023-01-22T00:08:51.696Z,9.67
2023-01-22T00:11:20.574Z,10.30
2023-01-22T00:13:48.760Z,10.17
2023-01-22T00:16:18.146Z,9.27
2023-01-22T00:18:47.521Z,10.50
2023-01-22T00:21:15.811Z,13.00
2023-01-22T00:23:43.948Z,11.13
2023-01-22T00:26:14.237Z,9.77
2023-01-22T00:28:42.594Z,11.70
2023-01-22T00:31:14.825Z,9.73
2023-01-22T00:33:43.291Z,10.73
2023-01-22T00:36:15.744Z,11.00
2023-01-22T00:38:45.427Z,8.90
2023-01-22T00:41:14.712Z,13.83
2023-01-22T00:43:43.257Z,11.50
2023-01-22T00:46:16.593Z,9.33
2023-01-22T00:48:46.151Z,11.13
2023-01-22T00:51:18.210Z,12.93
2023-01-22T00:53:46.508Z,9.37
2023-01-22T00:56:15.414Z,10.63
2023-01-22T00:58:43.587Z,12.20
2023-01-22T01:01:14.109Z,10.13
2023-01-22T01:03:42.702Z,10.17
2023-01-22T01:06:18.234Z,12.57
2023-01-22T01:08:47.223Z,9.10
2023-01-22T01:11:18.502Z,11.40
2023-01-22T01:13:46.531Z,10.33
2023-01-22T01:16:16.214Z,9.40
2023-01-22T01:18:44.468Z,10.73
2023-01-22T01:21:13.004Z,10.40
2023-01-22T01:23:43.663Z,11.53
2023-01-22T01:26:14.151Z,10.37
2023-01-22T01:28:43.288Z,11.50
2023-01-22T01:31:13.426Z,11.80
2023-01-22T01:33:42.230Z,10.77
2023-01-22T01:36:12.821Z,10.27
2023-01-22T01:38:42.296Z,10.93
2023-01-22T01:41:13.501Z,12.23
2023-01-22T01:43:47.939Z,10.17
2023-01-22T01:46:20.965Z,11.07
2023-01-22T01:48:51.790Z,10.30
2023-01-22T01:51:24.176Z,10.23
2023-01-22T01:53:53.942Z,9.73
2023-01-22T01:56:25.483Z,12.73
2023-01-22T01:58:58.193Z,11.03
2023-01-22T02:01:27.271Z,11.77
2023-01-22T02:03:55.718Z,10.57
2023-01-22T02:06:23.778Z,10.67
2023-01-22T02:08:55.111Z,11.57
2023-01-22T02:11:24.539Z,9.97
2023-01-22T02:13:57.002Z,10.13
2023-01-22T02:16:24.959Z,10.70
2023-01-22T02:18:53.079Z,11.13
2023-01-22T02:21:37.487Z,10.60
2023-01-22T02:24:07.783Z,10.67
2023-01-22T02:26:37.998Z,10.10
2023-01-22T02:29:07.956Z,12.17
2023-01-22T02:31:36.562Z,10.47
2023-01-22T02:34:05.897Z,9.50
2023-01-22T02:36:38.002Z,10.80
2023-01-22T02:39:06.196Z,9.63
2023-01-22T02:41:34.579Z,8.63
2023-01-22T02:44:04.319Z,9.90
2023-01-22T02:46:32.234Z,9.07
2023-01-22T02:49:00.193Z,8.53
2023-01-22T02:51:28.161Z,9.17
2023-01-22T02:53:57.385Z,8.07
2023-01-22T02:56:34.204Z,8.90
2023-01-22T02:59:03.314Z,8.13
2023-01-22T03:01:31.352Z,9.93
2023-01-22T03:04:01.936Z,7.70
2023-01-22T03:06:34.136Z,8.30
2023-01-22T03:09:03.436Z,9.60
2023-01-22T03:11:32.522Z,8.23
2023-01-22T03:14:18.036Z,7.60
2023-01-22T03:17:07.381Z,7.00
2023-01-22T03:19:52.895Z,7.30
2023-01-22T03:22:21.000Z,7.30
2023-01-22T03:24:52.871Z,7.90
2023-01-22T03:27:22.546Z,8.47
2023-01-22T03:29:50.793Z,7.20
2023-01-22T03:32:19.246Z,7.77
2023-01-22T03:34:48.960Z,7.70
2023-01-22T03:37:17.503Z,6.80
2023-01-22T03:39:45.630Z,7.17
2023-01-22T03:42:18.019Z,8.10
2023-01-22T03:44:45.951Z,8.63
2023-01-22T03:47:13.945Z,7.17
2023-01-22T03:49:48.796Z,6.00
2023-01-22T03:52:16.674Z,7.93
2023-01-22T03:54:46.843Z,6.33
2023-01-22T03:57:16.141Z,6.10
2023-01-22T03:59:44.092Z,6.47
2023-01-22T04:02:12.167Z,5.83
2023-01-22T04:04:40.238Z,5.83
2023-01-22T04:07:08.199Z,6.27
2023-01-22T04:09:36.163Z,5.60
2023-01-22T04:12:04.132Z,5.50
2023-01-22T04:14:33.440Z,5.30
2023-01-22T04:17:03.111Z,4.60
2023-01-22T04:19:32.756Z,4.67
2023-01-22T04:22:00.680Z,4.43
2023-01-22T04:24:28.630Z,6.77
2023-01-22T04:26:56.636Z,4.50
2023-01-22T04:29:24.573Z,5.03
2023-01-22T04:31:53.911Z,4.30
2023-01-22T04:34:21.818Z,4.77
2023-01-22T04:36:49.792Z,4.50
2023-01-22T04:39:17.807Z,3.97
2023-01-22T04:41:46.012Z,4.30
2023-01-22T04:44:14.106Z,4.60
2023-01-22T04:46:42.076Z,4.37
2023-01-22T04:49:11.433Z,5.57
2023-01-22T04:51:39.387Z,4.83
2023-01-22T04:54:07.344Z,5.17
2023-01-22T04:56:35.250Z,4.73
2023-01-22T04:59:03.237Z,5.20
2023-01-22T05:01:34.268Z,4.73
2023-01-22T05:04:02.582Z,4.90
2023-01-22T05:06:32.453Z,5.20
2023-01-22T05:09:00.481Z,4.87
2023-01-22T05:11:28.460Z,4.40
2023-01-22T05:13:56.390Z,4.20
2023-01-22T05:16:24.443Z,4.70
2023-01-22T05:18:52.445Z,6.50
2023-01-22T05:21:20.348Z,5.57
2023-01-22T05:23:55.744Z,4.10
2023-01-22T05:26:23.655Z,4.27
2023-01-22T05:28:51.587Z,4.10
2023-01-22T05:31:19.716Z,4.00
2023-01-22T05:33:47.620Z,4.93
2023-01-22T05:36:15.463Z,4.63
2023-01-22T05:38:46.505Z,4.50
2023-01-22T05:41:15.838Z,3.57
2023-01-22T05:43:45.682Z,3.57
2023-01-22T05:46:13.665Z,4.13
2023-01-22T05:48:41.605Z,4.23
2023-01-22T05:51:09.860Z,4.97
2023-01-22T05:53:37.910Z,3.30
2023-01-22T05:56:07.247Z,3.80
2023-01-22T05:58:36.637Z,4.10
2023-01-22T06:01:06.599Z,4.10
2023-01-22T06:03:34.639Z,3.60
2023-01-22T06:06:04.491Z,3.77
2023-01-22T06:08:36.093Z,4.30
2023-01-22T06:11:08.218Z,3.90
2023-01-22T06:13:38.381Z,3.67
2023-01-22T06:16:09.824Z,4.77
2023-01-22T06:18:37.935Z,4.30
2023-01-22T06:21:08.114Z,5.63
2023-01-22T06:23:36.122Z,3.97
2023-01-22T06:26:06.582Z,4.37
2023-01-22T06:28:34.559Z,4.37
2023-01-22T06:31:07.540Z,4.07
2023-01-22T06:33:38.694Z,3.60
2023-01-22T06:36:07.312Z,5.67
2023-01-22T06:38:38.056Z,5.10
2023-01-22T06:41:06.112Z,3.80
2023-01-22T06:43:34.007Z,4.30
2023-01-22T06:46:04.712Z,4.03
2023-01-22T06:48:32.721Z,3.73
2023-01-22T06:51:01.312Z,5.50
2023-01-22T06:53:29.411Z,4.10
2023-01-22T06:55:59.985Z,4.10
2023-01-22T06:58:29.926Z,4.20
2023-01-22T07:01:03.051Z,4.27
2023-01-22T07:03:31.247Z,4.67
2023-01-22T07:06:00.138Z,4.30
2023-01-22T07:08:29.346Z,4.93
2023-01-22T07:10:57.301Z,4.20
2023-01-22T07:13:25.325Z,4.00
2023-01-22T07:15:54.012Z,4.30
2023-01-22T07:18:24.357Z,4.27
2023-01-22T07:20:58.779Z,5.17
2023-01-22T07:23:26.793Z,4.03
2023-01-22T07:25:54.760Z,5.27
2023-01-22T07:28:22.841Z,4.40
2023-01-22T07:30:50.909Z,3.80
2023-01-22T07:33:19.045Z,5.33
2023-01-22T07:35:54.795Z,3.87
2023-01-22T07:38:22.767Z,4.67
2023-01-22T07:40:50.792Z,4.13
2023-01-22T07:43:18.740Z,4.50
2023-01-22T07:45:46.765Z,4.33
2023-01-22T07:48:14.708Z,5.00
2023-01-22T07:50:42.808Z,4.00
2023-01-22T07:53:12.204Z,3.83
2023-01-22T07:55:41.542Z,4.40
2023-01-22T07:58:09.624Z,4.63
2023-01-22T08:00:37.812Z,3.87
2023-01-22T08:03:06.957Z,3.97
2023-01-22T08:05:34.950Z,4.97
2023-01-22T08:08:04.234Z,4.23
2023-01-22T08:10:33.835Z,3.90
2023-01-22T08:13:01.759Z,4.90
2023-01-22T08:15:29.758Z,3.57
2023-01-22T08:17:57.769Z,3.93
2023-01-22T08:20:28.811Z,4.17
2023-01-22T08:22:58.785Z,4.00
2023-01-22T08:25:27.231Z,4.27
2023-01-22T08:27:56.644Z,3.50
2023-01-22T08:30:24.736Z,3.43
2023-01-22T08:32:55.137Z,3.50
2023-01-22T08:35:24.549Z,6.87
2023-01-22T08:37:55.270Z,4.80
2023-01-22T08:40:23.163Z,4.70
2023-01-22T08:42:56.376Z,6.73
2023-01-22T08:45:25.097Z,4.60
2023-01-22T08:47:59.856Z,9.90
2023-01-22T08:50:29.098Z,5.47
2023-01-22T08:53:00.326Z,4.87
2023-01-22T08:55:28.675Z,7.83
2023-01-22T08:57:58.409Z,4.20
2023-01-22T09:00:27.530Z,3.83
2023-01-22T09:02:59.642Z,4.13
2023-01-22T09:05:28.040Z,3.73
2023-01-22T09:07:56.163Z,4.93
2023-01-22T09:10:24.464Z,3.77
2023-01-22T09:12:52.761Z,3.40
2023-01-22T09:15:22.120Z,4.03
2023-01-22T09:17:50.104Z,4.10
2023-01-22T09:20:18.625Z,4.20
2023-01-22T09:22:47.033Z,4.43
2023-01-22T09:25:15.369Z,4.23
2023-01-22T09:27:43.781Z,4.53
2023-01-22T09:30:14.414Z,3.37
2023-01-22T09:32:43.797Z,3.63
2023-01-22T09:35:11.931Z,3.20
2023-01-22T09:37:39.943Z,4.97
2023-01-22T09:40:11.544Z,3.40
2023-01-22T09:42:41.350Z,3.10
2023-01-22T09:45:15.693Z,4.70
2023-01-22T09:47:48.082Z,4.47
2023-01-22T09:50:19.485Z,3.50
2023-01-22T09:52:48.334Z,3.97
2023-01-22T09:55:18.147Z,3.90
2023-01-22T09:57:48.477Z,3.53
2023-01-22T10:00:19.493Z,3.67
2023-01-22T10:02:55.421Z,4.57
2023-01-22T10:05:34.429Z,3.87
2023-01-22T10:08:07.492Z,4.03
2023-01-22T10:10:36.398Z,4.17
2023-01-22T10:13:15.659Z,4.32
2023-01-22T10:15:43.645Z,3.60
2023-01-22T10:18:25.398Z,3.73
2023-01-22T10:20:54.566Z,4.07
2023-01-22T10:23:25.506Z,3.50
2023-01-22T10:25:59.199Z,4.68
2023-01-22T10:28:29.277Z,4.00
2023-01-22T10:30:59.102Z,3.63
2023-01-22T10:33:29.446Z,4.30
2023-01-22T10:35:58.137Z,4.67
2023-01-22T10:38:29.876Z,3.70
2023-01-22T10:41:00.282Z,3.90
2023-01-22T10:43:34.148Z,4.03
2023-01-22T10:46:07.604Z,4.27
2023-01-22T10:48:36.966Z,5.53
2023-01-22T10:51:14.961Z,3.60
2023-01-22T10:53:48.653Z,3.90
2023-01-22T10:56:27.640Z,3.47
2023-01-22T10:58:56.929Z,3.40
2023-01-22T11:01:35.984Z,3.47
2023-01-22T11:04:15.091Z,5.27
2023-01-22T11:06:46.967Z,4.17
2023-01-22T11:09:19.456Z,4.73
2023-01-22T11:11:51.105Z,3.00
2023-01-22T11:14:23.423Z,3.80
2023-01-22T11:16:54.769Z,3.20
2023-01-22T11:19:40.668Z,3.47
2023-01-22T11:22:21.812Z,5.13
2023-01-22T11:24:50.250Z,3.63
2023-01-22T11:27:48.073Z,3.53
2023-01-22T11:30:39.881Z,4.07
2023-01-22T11:33:22.266Z,3.20
2023-01-22T11:35:58.381Z,3.53
2023-01-22T11:38:34.299Z,3.47
2023-01-22T11:41:20.274Z,4.57
2023-01-22T11:44:03.241Z,4.83
2023-01-22T11:46:48.958Z,4.60
2023-01-22T11:49:27.798Z,3.67
2023-01-22T11:52:08.541Z,3.83
2023-01-22T11:55:00.545Z,3.40
2023-01-22T11:57:34.451Z,4.50
2023-01-22T12:00:36.378Z,4.30
2023-01-22T12:03:27.303Z,3.80
2023-01-22T12:06:12.843Z,3.77
2023-01-22T12:08:57.609Z,3.97
2023-01-22T12:11:42.793Z,3.20
2023-01-22T12:14:36.210Z,2.80
2023-01-22T12:17:13.156Z,3.03
2023-01-22T12:20:17.148Z,2.80
2023-01-22T12:22:51.408Z,3.33
2023-01-22T12:25:28.482Z,3.50
2023-01-22T12:28:03.639Z,4.63
2023-01-22T12:30:42.550Z,3.77
2023-01-22T12:36:02.793Z,3.20
2023-01-22T12:38:43.282Z,4.47
2023-01-22T12:41:36.457Z,3.23
2023-01-22T12:44:12.071Z,3.67
2023-01-22T12:46:56.038Z,3.63
2023-01-22T12:49:23.926Z,3.20
2023-01-22T12:51:53.632Z,4.23
2023-01-22T12:54:30.824Z,3.83
2023-01-22T12:57:24.633Z,3.90
2023-01-22T13:00:13.537Z,3.40
2023-01-22T13:02:41.684Z,3.50
2023-01-22T13:05:23.599Z,4.57
2023-01-22T13:08:02.914Z,5.63
2023-01-22T13:10:32.692Z,4.10
2023-01-22T13:13:05.057Z,4.17
2023-01-22T13:15:38.143Z,3.20
2023-01-22T13:18:16.000Z,4.07
2023-01-22T13:20:50.391Z,3.10
2023-01-22T13:23:21.711Z,2.83
2023-01-22T13:25:54.907Z,3.93
2023-01-22T13:28:25.696Z,4.40
2023-01-22T13:31:02.366Z,3.77
2023-01-22T13:33:31.535Z,5.30
2023-01-22T13:35:59.871Z,3.23
2023-01-22T13:38:29.936Z,3.93
2023-01-22T13:41:00.838Z,3.40
2023-01-22T13:43:30.499Z,4.00
2023-01-22T13:45:59.539Z,3.23
2023-01-22T13:48:27.983Z,4.63
2023-01-22T13:51:02.237Z,4.77
2023-01-22T13:53:32.948Z,6.47
2023-01-22T13:56:01.943Z,4.03
2023-01-22T13:58:47.902Z,4.17
2023-01-22T14:01:29.284Z,3.30
2023-01-22T14:04:01.796Z,4.27
2023-01-22T14:06:44.739Z,4.30
2023-01-22T14:09:14.745Z,5.03
2023-01-22T14:11:42.803Z,3.93
2023-01-22T14:14:20.236Z,3.90
2023-01-22T14:16:51.157Z,4.30
2023-01-22T14:19:19.249Z,4.03
2023-01-22T14:21:47.207Z,4.27
2023-01-22T14:24:15.343Z,4.10
2023-01-22T14:26:43.675Z,3.70
2023-01-22T14:29:11.889Z,3.77
2023-01-22T14:31:41.244Z,3.53
2023-01-22T14:34:11.167Z,3.93
2023-01-22T14:36:52.918Z,4.00
2023-01-22T14:39:22.796Z,3.57
2023-01-22T14:41:51.419Z,4.17
2023-01-22T14:44:22.126Z,4.97
2023-01-22T14:46:52.655Z,4.17
2023-01-22T14:49:25.009Z,4.53
2023-01-22T14:51:57.959Z,4.27
2023-01-22T14:54:26.061Z,5.47
2023-01-22T14:56:58.250Z,3.47
2023-01-22T14:59:32.289Z,3.67
2023-01-22T15:02:01.700Z,4.23
2023-01-22T15:04:30.015Z,3.90
2023-01-22T15:06:58.247Z,4.33
2023-01-22T15:09:28.147Z,4.53
2023-01-22T15:11:58.916Z,4.10
2023-01-22T15:14:29.761Z,3.83
2023-01-22T15:16:57.964Z,4.10
2023-01-22T15:19:27.400Z,3.83
2023-01-22T15:21:55.647Z,3.67
2023-01-22T15:24:26.471Z,3.80
2023-01-22T15:26:54.746Z,3.63
2023-01-22T15:29:22.687Z,3.87
2023-01-22T15:31:50.772Z,4.00
2023-01-22T15:34:19.547Z,3.80
2023-01-22T15:36:48.947Z,3.73
2023-01-22T15:39:18.615Z,5.30
2023-01-22T15:41:48.479Z,6.00
2023-01-22T15:44:16.559Z,5.23
2023-01-22T15:46:47.280Z,4.27
2023-01-22T15:49:18.253Z,4.30
2023-01-22T15:51:46.308Z,4.70
2023-01-22T15:54:18.381Z,4.17
2023-01-22T15:56:46.386Z,24.73
2023-01-22T15:59:14.499Z,4.47
2023-01-22T16:01:42.587Z,4.63
2023-01-22T16:04:11.050Z,7.13
2023-01-22T16:06:41.315Z,4.50
2023-01-22T16:09:09.341Z,4.53
2023-01-22T16:11:38.715Z,4.50
2023-01-22T16:14:08.712Z,4.30
2023-01-22T16:16:39.099Z,4.50
2023-01-22T16:19:09.300Z,5.57
2023-01-22T16:21:37.557Z,4.33
2023-01-22T16:24:08.602Z,5.20
2023-01-22T16:26:39.871Z,4.90
2023-01-22T16:29:09.850Z,5.27
2023-01-22T16:31:39.918Z,4.90
2023-01-22T16:34:11.782Z,5.40
2023-01-22T16:36:42.687Z,4.97
2023-01-22T16:39:17.059Z,6.97
2023-01-22T16:41:48.654Z,7.27
2023-01-22T16:44:18.720Z,5.60
2023-01-22T16:46:49.431Z,5.77
2023-01-22T16:49:19.833Z,5.70
2023-01-22T16:51:51.280Z,5.93
2023-01-22T16:54:24.638Z,6.80
2023-01-22T16:56:53.951Z,5.63
2023-01-22T16:59:22.045Z,5.93
2023-01-22T17:01:50.547Z,5.63
2023-01-22T17:04:18.870Z,5.90
2023-01-22T17:06:48.371Z,5.67
2023-01-22T17:09:20.599Z,5.30
2023-01-22T17:11:57.646Z,5.70
2023-01-22T17:14:28.436Z,6.17
2023-01-22T17:16:57.046Z,6.33
2023-01-22T17:19:25.215Z,6.30
2023-01-22T17:21:55.350Z,6.30
2023-01-22T17:24:23.562Z,9.60
2023-01-22T17:26:52.377Z,9.73
2023-01-22T17:29:22.648Z,7.90
2023-01-22T17:31:50.798Z,7.00
2023-01-22T17:34:18.803Z,7.07
2023-01-22T17:36:46.818Z,7.77
2023-01-22T17:39:19.574Z,7.60
2023-01-22T17:41:47.932Z,6.23
2023-01-22T17:44:15.889Z,6.53
2023-01-22T17:46:45.289Z,6.73
2023-01-22T17:49:13.290Z,6.93
2023-01-22T17:51:44.896Z,7.30
2023-01-22T17:54:13.169Z,7.20
2023-01-22T17:56:45.382Z,12.07
2023-01-22T17:59:14.001Z,8.93
2023-01-22T18:01:42.447Z,20.63
2023-01-22T18:04:13.676Z,21.57
2023-01-22T18:06:43.053Z,18.77
2023-01-22T18:09:23.780Z,15.90
2023-01-22T18:11:51.779Z,16.73
2023-01-22T18:14:22.880Z,18.43
2023-01-22T18:16:51.475Z,9.13
2023-01-22T18:19:23.146Z,15.73
2023-01-22T18:21:52.868Z,12.13
2023-01-22T18:24:23.115Z,16.37
2023-01-22T18:26:51.568Z,14.00
2023-01-22T18:29:24.211Z,22.17
2023-01-22T18:31:55.170Z,17.87
2023-01-22T18:34:24.773Z,21.77
2023-01-22T18:36:54.482Z,15.77
2023-01-22T18:39:28.280Z,17.87
2023-01-22T18:41:56.231Z,26.93
2023-01-22T18:44:27.595Z,38.90
2023-01-22T18:46:58.735Z,33.47
2023-01-22T18:49:28.932Z,24.03
2023-01-22T18:52:00.772Z,15.33
2023-01-22T18:54:29.289Z,16.00
2023-01-22T18:56:57.281Z,17.03
2023-01-22T18:59:25.271Z,15.90
2023-01-22T19:01:53.241Z,10.20
2023-01-22T19:04:22.444Z,6.63
2023-01-22T19:06:56.930Z,6.70
2023-01-22T19:09:26.818Z,7.23
2023-01-22T19:11:55.635Z,6.27
2023-01-22T19:14:27.085Z,6.70
2023-01-22T19:16:55.476Z,6.00
2023-01-22T19:19:23.897Z,7.50
2023-01-22T19:21:56.245Z,7.73
2023-01-22T19:24:27.849Z,6.97
2023-01-22T19:26:59.008Z,6.90
2023-01-22T19:29:27.761Z,6.77
2023-01-22T19:31:57.304Z,6.73
2023-01-22T19:34:28.728Z,6.90
2023-01-22T19:37:02.387Z,6.30
2023-01-22T19:39:31.317Z,11.00
2023-01-22T19:42:02.119Z,7.13
2023-01-22T19:44:39.756Z,6.87
2023-01-22T19:47:11.193Z,7.13
2023-01-22T19:49:58.510Z,7.40
2023-01-22T19:52:29.097Z,8.57
2023-01-22T19:54:57.089Z,7.10
2023-01-22T19:57:27.390Z,8.20
2023-01-22T19:59:58.179Z,6.13
2023-01-22T20:02:26.380Z,6.23
2023-01-22T20:04:54.417Z,6.43
2023-01-22T20:07:22.697Z,6.53
2023-01-22T20:09:53.876Z,6.50
2023-01-22T20:12:23.191Z,7.40
2023-01-22T20:14:51.155Z,7.53
2023-01-22T20:17:21.602Z,7.20
2023-01-22T20:19:49.526Z,5.37
2023-01-22T20:22:17.535Z,6.03
2023-01-22T20:24:45.435Z,5.93
2023-01-22T20:27:14.877Z,6.20
2023-01-22T20:29:43.060Z,6.17
2023-01-22T20:32:10.992Z,7.00
2023-01-22T20:34:39.274Z,6.03
2023-01-22T20:37:07.224Z,6.63
2023-01-22T20:39:35.360Z,5.67
2023-01-22T20:42:03.294Z,7.60
2023-01-22T20:44:34.074Z,5.90
2023-01-22T20:47:02.511Z,7.80
2023-01-22T20:49:30.751Z,6.10
2023-01-22T20:52:00.467Z,6.30
2023-01-22T20:54:28.986Z,5.10
2023-01-22T20:56:56.941Z,5.70
2023-01-22T20:59:27.205Z,5.30
2023-01-22T21:01:58.606Z,4.60
2023-01-22T21:04:26.650Z,5.80
2023-01-22T21:06:54.608Z,5.57
2023-01-22T21:09:22.606Z,6.03
2023-01-22T21:11:50.617Z,5.23
2023-01-22T21:14:20.398Z,5.20
2023-01-22T21:16:49.000Z,5.50
2023-01-22T21:19:21.048Z,5.33
2023-01-22T21:21:49.079Z,5.67
2023-01-22T21:24:17.348Z,5.83
2023-01-22T21:26:47.635Z,6.80
2023-01-22T21:29:17.742Z,7.23
2023-01-22T21:31:48.929Z,6.00
2023-01-22T21:34:22.273Z,6.27
2023-01-22T21:36:55.479Z,7.17
2023-01-22T21:39:26.325Z,8.67
2023-01-22T21:42:15.093Z,7.30
2023-01-22T21:45:00.202Z,6.73
2023-01-22T21:47:30.665Z,7.87
2023-01-22T21:50:00.156Z,8.40
2023-01-22T21:52:30.588Z,11.93
2023-01-22T21:54:59.146Z,12.43
2023-01-22T21:57:27.125Z,12.20
2023-01-22T21:59:55.147Z,7.50
2023-01-22T22:02:25.229Z,7.83
2023-01-22T22:04:53.210Z,6.27
2023-01-22T22:07:22.562Z,5.93
2023-01-22T22:09:50.951Z,6.03
2023-01-22T22:12:18.943Z,5.27
2023-01-22T22:14:46.919Z,5.93
2023-01-22T22:17:14.892Z,6.73
2023-01-22T22:19:45.906Z,7.03
2023-01-22T22:22:13.785Z,6.17
2023-01-22T22:24:43.156Z,6.73
2023-01-22T22:27:11.163Z,7.47
2023-01-22T22:29:39.616Z,7.70
2023-01-22T22:32:07.685Z,6.37
2023-01-22T22:34:35.606Z,8.27
2023-01-22T22:37:03.532Z,5.23
2023-01-22T22:39:31.686Z,5.07
2023-01-22T22:42:01.023Z,4.97
2023-01-22T22:44:29.005Z,6.20
2023-01-22T22:46:56.840Z,5.63
2023-01-22T22:49:24.824Z,5.20
2023-01-22T22:51:52.835Z,6.73
2023-01-22T22:54:20.970Z,5.60
2023-01-22T22:56:51.207Z,5.87
2023-01-22T22:59:21.009Z,4.80
2023-01-22T23:01:56.439Z,5.90
2023-01-22T23:04:24.654Z,5.50
2023-01-22T23:06:52.928Z,5.60
2023-01-22T23:09:21.697Z,5.80
2023-01-22T23:11:51.988Z,6.10
2023-01-22T23:14:21.355Z,6.17
2023-01-22T23:16:49.861Z,4.93
2023-01-22T23:19:21.566Z,5.20
2023-01-22T23:21:51.288Z,6.13
2023-01-22T23:24:21.264Z,6.00
2023-01-22T23:26:49.827Z,7.27
2023-01-22T23:29:20.417Z,5.77
2023-01-22T23:31:50.062Z,6.33
2023-01-22T23:34:20.183Z,6.30
2023-01-22T23:36:49.627Z,6.80
2023-01-22T23:39:20.595Z,5.93
2023-01-22T23:41:48.834Z,6.60
2023-01-22T23:44:16.834Z,6.67
2023-01-22T23:47:10.912Z,6.07
2023-01-22T23:49:38.932Z,7.63
2023-01-22T23:52:07.159Z,6.47
2023-01-22T23:54:36.887Z,7.77
2023-01-22T23:57:05.158Z,6.80
2023-01-22T23:59:34.866Z,7.23
